BIENTÔT MET'MAP
version 2.0 !

Prévue avant fin octobre,
la nouvelle version sera
plus belle, plus complète
et hébergée sur un serveur
3 fois plus puissant...
et toujours gratuite !


Pas compatible ?
Essayez la version Mobile !

SE CONNECTER : | S'inscrire | Disclaimer | Découvrir Orbifly |
Code OACI :
Lgende : VFR VFR Marginal IFR IFR Intensif IFR Trs Intensif
Visi :
Plafond :
>= 8 km
>= 3000ft
5 8 km
1000 3000 ft
1500m 5 km
500 1000 ft
800 1500m
200 500 ft
< 800m
< 200 ft

METAR - LIPA Aviano AB Pordenone - 28 Jan 2020 00:04 UTC
Data Sources :     NOAA   


- Altitude de l'aérodrome : 410 ft
- Code IATA : AVB
- Pas de NOTAMs connus.


LIPA - Aviano AB Pordenone

Dernier METAR connu : 2015/08/11 07:55 LIPA 110755Z 19002KT 9999 SCT090 28/19 Q1012 RMK SCT VIS MIN 9999 WIND THR05 20002KT WIND THR23 13001KT A2991 BLU
TAF TAF LIPA
Valide du 27 à 21h jusqu'au 28 à 06h UTC


272000Z 2721/2806 VRB03KT 3000 BR SCT010 BKN020
TEMPO 2723/2803 1200 DZ BR OVC008

Source NOAA


MET'MAP, la Météo Aéronautique d'un coup d'oeil ! - Copyright ORBIFLY Décembre 2007

Développement & Programmation : Alexandra Zaïnal
Co-Développement : Marc-Olivier Méhu
Soutien technique & logistique : Manuel Goepfert
Conception & Financement : Baudouin d'Aumeries